sensor_id;sensor_type;location;lat;lon;timestamp;P1;durP1;ratioP1;P2;durP2;ratioP2
12585;SDS011;6358;50.760;0.282;2023-09-19T00:01:28;3.05;;;1.35;;
12585;SDS011;6358;50.760;0.282;2023-09-19T00:03:58;3.22;;;1.17;;
12585;SDS011;6358;50.760;0.282;2023-09-19T00:06:24;2.90;;;1.30;;
12585;SDS011;6358;50.760;0.282;2023-09-19T00:08:51;2.03;;;1.30;;
12585;SDS011;6358;50.760;0.282;2023-09-19T00:11:18;2.22;;;1.20;;
12585;SDS011;6358;50.760;0.282;2023-09-19T00:13:47;1.63;;;1.15;;
12585;SDS011;6358;50.760;0.282;2023-09-19T00:16:15;2.50;;;1.30;;
12585;SDS011;6358;50.760;0.282;2023-09-19T00:18:44;2.67;;;1.30;;
12585;SDS011;6358;50.760;0.282;2023-09-19T00:21:10;3.60;;;1.50;;
12585;SDS011;6358;50.760;0.282;2023-09-19T00:23:36;2.72;;;1.30;;
12585;SDS011;6358;50.760;0.282;2023-09-19T00:26:02;2.65;;;1.50;;
12585;SDS011;6358;50.760;0.282;2023-09-19T00:28:29;3.85;;;1.65;;
12585;SDS011;6358;50.760;0.282;2023-09-19T00:30:56;1.23;;;0.95;;
12585;SDS011;6358;50.760;0.282;2023-09-19T00:33:26;2.10;;;1.45;;
12585;SDS011;6358;50.760;0.282;2023-09-19T00:35:54;1.75;;;1.00;;
12585;SDS011;6358;50.760;0.282;2023-09-19T00:38:21;2.33;;;1.45;;
12585;SDS011;6358;50.760;0.282;2023-09-19T00:40:52;4.03;;;1.52;;
12585;SDS011;6358;50.760;0.282;2023-09-19T00:43:19;3.20;;;1.58;;
12585;SDS011;6358;50.760;0.282;2023-09-19T00:45:46;5.00;;;1.75;;
12585;SDS011;6358;50.760;0.282;2023-09-19T00:48:13;2.63;;;1.20;;
12585;SDS011;6358;50.760;0.282;2023-09-19T00:50:41;2.55;;;1.38;;
12585;SDS011;6358;50.760;0.282;2023-09-19T00:53:08;3.80;;;1.33;;
12585;SDS011;6358;50.760;0.282;2023-09-19T00:55:34;2.58;;;1.42;;
12585;SDS011;6358;50.760;0.282;2023-09-19T00:58:02;2.72;;;1.73;;
12585;SDS011;6358;50.760;0.282;2023-09-19T01:00:31;2.70;;;1.50;;
12585;SDS011;6358;50.760;0.282;2023-09-19T01:02:59;2.42;;;1.42;;
12585;SDS011;6358;50.760;0.282;2023-09-19T01:05:26;3.10;;;1.40;;
12585;SDS011;6358;50.760;0.282;2023-09-19T01:07:52;4.25;;;1.73;;
12585;SDS011;6358;50.760;0.282;2023-09-19T01:10:19;2.45;;;1.40;;
12585;SDS011;6358;50.760;0.282;2023-09-19T01:25:50;3.20;;;1.70;;
12585;SDS011;6358;50.760;0.282;2023-09-19T01:30:43;2.65;;;1.50;;
12585;SDS011;6358;50.760;0.282;2023-09-19T01:33:10;2.53;;;1.40;;
12585;SDS011;6358;50.760;0.282;2023-09-19T01:35:39;3.88;;;1.50;;
12585;SDS011;6358;50.760;0.282;2023-09-19T01:38:08;2.78;;;1.40;;
12585;SDS011;6358;50.760;0.282;2023-09-19T01:40:36;2.08;;;1.30;;
12585;SDS011;6358;50.760;0.282;2023-09-19T01:43:08;3.08;;;1.40;;
12585;SDS011;6358;50.760;0.282;2023-09-19T01:45:37;2.35;;;1.45;;
12585;SDS011;6358;50.760;0.282;2023-09-19T01:48:20;2.70;;;1.50;;
12585;SDS011;6358;50.760;0.282;2023-09-19T01:53:25;3.50;;;1.85;;
12585;SDS011;6358;50.760;0.282;2023-09-19T01:55:55;3.20;;;1.67;;
12585;SDS011;6358;50.760;0.282;2023-09-19T02:00:51;3.92;;;1.75;;
12585;SDS011;6358;50.760;0.282;2023-09-19T02:03:19;3.55;;;1.55;;
12585;SDS011;6358;50.760;0.282;2023-09-19T02:05:50;2.28;;;1.40;;
12585;SDS011;6358;50.760;0.282;2023-09-19T02:08:19;3.47;;;1.42;;
12585;SDS011;6358;50.760;0.282;2023-09-19T02:10:45;2.85;;;1.45;;
12585;SDS011;6358;50.760;0.282;2023-09-19T02:13:17;3.10;;;1.35;;
12585;SDS011;6358;50.760;0.282;2023-09-19T02:15:44;2.47;;;1.50;;
12585;SDS011;6358;50.760;0.282;2023-09-19T02:18:10;2.78;;;1.42;;
12585;SDS011;6358;50.760;0.282;2023-09-19T02:20:37;2.65;;;1.58;;
12585;SDS011;6358;50.760;0.282;2023-09-19T02:23:03;2.10;;;1.40;;
12585;SDS011;6358;50.760;0.282;2023-09-19T02:25:29;2.70;;;1.40;;
12585;SDS011;6358;50.760;0.282;2023-09-19T02:27:56;2.55;;;1.60;;
12585;SDS011;6358;50.760;0.282;2023-09-19T02:30:26;3.10;;;1.70;;
12585;SDS011;6358;50.760;0.282;2023-09-19T02:32:53;2.97;;;1.40;;
12585;SDS011;6358;50.760;0.282;2023-09-19T02:35:19;4.55;;;1.60;;
12585;SDS011;6358;50.760;0.282;2023-09-19T02:37:48;3.88;;;1.70;;
12585;SDS011;6358;50.760;0.282;2023-09-19T02:40:14;2.08;;;1.50;;
12585;SDS011;6358;50.760;0.282;2023-09-19T02:42:46;3.70;;;1.40;;
12585;SDS011;6358;50.760;0.282;2023-09-19T02:45:15;2.42;;;1.50;;
12585;SDS011;6358;50.760;0.282;2023-09-19T02:47:42;2.50;;;1.58;;
12585;SDS011;6358;50.760;0.282;2023-09-19T02:50:09;2.83;;;1.50;;
12585;SDS011;6358;50.760;0.282;2023-09-19T02:52:38;2.83;;;1.17;;
12585;SDS011;6358;50.760;0.282;2023-09-19T02:55:04;2.80;;;1.52;;
12585;SDS011;6358;50.760;0.282;2023-09-19T02:57:31;2.35;;;1.30;;
12585;SDS011;6358;50.760;0.282;2023-09-19T02:59:58;2.90;;;1.77;;
12585;SDS011;6358;50.760;0.282;2023-09-19T03:02:26;2.28;;;1.35;;
12585;SDS011;6358;50.760;0.282;2023-09-19T03:04:53;2.83;;;1.50;;
12585;SDS011;6358;50.760;0.282;2023-09-19T03:07:19;2.83;;;1.50;;
12585;SDS011;6358;50.760;0.282;2023-09-19T03:09:45;2.38;;;1.48;;
12585;SDS011;6358;50.760;0.282;2023-09-19T03:12:12;2.53;;;1.60;;
12585;SDS011;6358;50.760;0.282;2023-09-19T03:14:41;2.67;;;1.40;;
12585;SDS011;6358;50.760;0.282;2023-09-19T03:17:07;3.88;;;1.52;;
12585;SDS011;6358;50.760;0.282;2023-09-19T03:19:34;2.72;;;1.48;;
12585;SDS011;6358;50.760;0.282;2023-09-19T03:22:02;2.40;;;1.50;;
12585;SDS011;6358;50.760;0.282;2023-09-19T03:24:28;2.30;;;1.40;;
12585;SDS011;6358;50.760;0.282;2023-09-19T03:26:54;2.53;;;1.33;;
12585;SDS011;6358;50.760;0.282;2023-09-19T03:29:20;3.47;;;1.50;;
12585;SDS011;6358;50.760;0.282;2023-09-19T03:31:47;2.85;;;1.33;;
12585;SDS011;6358;50.760;0.282;2023-09-19T03:34:13;4.18;;;1.70;;
12585;SDS011;6358;50.760;0.282;2023-09-19T03:36:39;2.58;;;1.40;;
12585;SDS011;6358;50.760;0.282;2023-09-19T03:39:06;3.25;;;1.70;;
12585;SDS011;6358;50.760;0.282;2023-09-19T03:41:32;2.72;;;1.40;;
12585;SDS011;6358;50.760;0.282;2023-09-19T03:44:01;3.10;;;1.40;;
12585;SDS011;6358;50.760;0.282;2023-09-19T03:46:27;3.15;;;1.48;;
12585;SDS011;6358;50.760;0.282;2023-09-19T03:48:55;3.47;;;1.45;;
12585;SDS011;6358;50.760;0.282;2023-09-19T03:51:21;2.60;;;1.40;;
12585;SDS011;6358;50.760;0.282;2023-09-19T03:53:47;3.20;;;1.52;;
12585;SDS011;6358;50.760;0.282;2023-09-19T03:56:15;3.42;;;1.52;;
12585;SDS011;6358;50.760;0.282;2023-09-19T03:58:41;4.00;;;1.60;;
12585;SDS011;6358;50.760;0.282;2023-09-19T04:01:07;3.17;;;1.60;;
12585;SDS011;6358;50.760;0.282;2023-09-19T04:03:34;2.75;;;1.63;;
12585;SDS011;6358;50.760;0.282;2023-09-19T04:06:10;3.00;;;1.48;;
12585;SDS011;6358;50.760;0.282;2023-09-19T04:08:37;4.47;;;1.55;;
12585;SDS011;6358;50.760;0.282;2023-09-19T04:11:03;3.55;;;2.08;;
12585;SDS011;6358;50.760;0.282;2023-09-19T04:13:29;3.15;;;1.70;;
12585;SDS011;6358;50.760;0.282;2023-09-19T04:15:55;2.67;;;1.50;;
12585;SDS011;6358;50.760;0.282;2023-09-19T04:18:21;3.67;;;1.83;;
12585;SDS011;6358;50.760;0.282;2023-09-19T04:20:51;3.85;;;1.33;;
12585;SDS011;6358;50.760;0.282;2023-09-19T04:23:17;3.70;;;1.50;;
12585;SDS011;6358;50.760;0.282;2023-09-19T04:25:46;3.00;;;1.58;;
12585;SDS011;6358;50.760;0.282;2023-09-19T04:28:13;3.37;;;1.40;;
12585;SDS011;6358;50.760;0.282;2023-09-19T04:30:40;3.58;;;1.50;;
12585;SDS011;6358;50.760;0.282;2023-09-19T04:33:06;2.83;;;1.63;;
12585;SDS011;6358;50.760;0.282;2023-09-19T04:35:33;2.65;;;1.50;;
12585;SDS011;6358;50.760;0.282;2023-09-19T04:38:00;3.30;;;1.33;;
12585;SDS011;6358;50.760;0.282;2023-09-19T04:40:28;2.95;;;1.55;;
12585;SDS011;6358;50.760;0.282;2023-09-19T04:42:57;3.40;;;1.73;;
12585;SDS011;6358;50.760;0.282;2023-09-19T04:45:24;3.35;;;1.60;;
12585;SDS011;6358;50.760;0.282;2023-09-19T04:47:51;3.60;;;1.80;;
12585;SDS011;6358;50.760;0.282;2023-09-19T04:50:18;2.80;;;1.60;;
12585;SDS011;6358;50.760;0.282;2023-09-19T04:52:48;3.75;;;1.75;;
12585;SDS011;6358;50.760;0.282;2023-09-19T04:55:16;3.78;;;1.80;;
12585;SDS011;6358;50.760;0.282;2023-09-19T04:57:47;2.25;;;1.17;;
12585;SDS011;6358;50.760;0.282;2023-09-19T05:00:17;3.22;;;1.50;;
12585;SDS011;6358;50.760;0.282;2023-09-19T05:02:50;3.67;;;1.70;;
12585;SDS011;6358;50.760;0.282;2023-09-19T05:05:17;3.72;;;1.60;;
12585;SDS011;6358;50.760;0.282;2023-09-19T05:07:44;4.00;;;1.60;;
12585;SDS011;6358;50.760;0.282;2023-09-19T05:10:10;2.73;;;1.50;;
12585;SDS011;6358;50.760;0.282;2023-09-19T05:12:37;3.10;;;1.38;;
12585;SDS011;6358;50.760;0.282;2023-09-19T05:15:04;2.83;;;1.50;;
12585;SDS011;6358;50.760;0.282;2023-09-19T05:17:32;5.03;;;2.17;;
12585;SDS011;6358;50.760;0.282;2023-09-19T05:19:59;3.85;;;1.60;;
12585;SDS011;6358;50.760;0.282;2023-09-19T05:22:31;3.08;;;1.45;;
12585;SDS011;6358;50.760;0.282;2023-09-19T05:24:58;2.47;;;1.40;;
12585;SDS011;6358;50.760;0.282;2023-09-19T05:27:24;3.40;;;1.70;;
12585;SDS011;6358;50.760;0.282;2023-09-19T05:29:51;2.72;;;1.60;;
12585;SDS011;6358;50.760;0.282;2023-09-19T05:32:18;2.53;;;1.50;;
12585;SDS011;6358;50.760;0.282;2023-09-19T05:34:45;5.25;;;1.70;;
12585;SDS011;6358;50.760;0.282;2023-09-19T05:37:12;3.67;;;1.55;;
12585;SDS011;6358;50.760;0.282;2023-09-19T05:39:41;3.73;;;1.60;;
12585;SDS011;6358;50.760;0.282;2023-09-19T05:42:08;3.83;;;1.65;;
12585;SDS011;6358;50.760;0.282;2023-09-19T05:44:34;2.67;;;1.48;;
12585;SDS011;6358;50.760;0.282;2023-09-19T05:47:01;3.03;;;1.50;;
12585;SDS011;6358;50.760;0.282;2023-09-19T05:49:28;3.33;;;1.48;;
12585;SDS011;6358;50.760;0.282;2023-09-19T05:51:54;2.38;;;1.13;;
12585;SDS011;6358;50.760;0.282;2023-09-19T05:54:21;2.17;;;1.15;;
12585;SDS011;6358;50.760;0.282;2023-09-19T05:56:47;2.95;;;1.33;;
12585;SDS011;6358;50.760;0.282;2023-09-19T05:59:18;2.00;;;1.13;;
12585;SDS011;6358;50.760;0.282;2023-09-19T06:01:44;7.00;;;1.77;;
12585;SDS011;6358;50.760;0.282;2023-09-19T06:04:12;4.40;;;1.50;;
12585;SDS011;6358;50.760;0.282;2023-09-19T06:06:38;3.97;;;1.63;;
12585;SDS011;6358;50.760;0.282;2023-09-19T06:09:05;3.80;;;1.58;;
12585;SDS011;6358;50.760;0.282;2023-09-19T06:11:35;4.13;;;1.40;;
12585;SDS011;6358;50.760;0.282;2023-09-19T06:14:01;6.30;;;1.70;;
12585;SDS011;6358;50.760;0.282;2023-09-19T06:16:28;4.32;;;1.60;;
12585;SDS011;6358;50.760;0.282;2023-09-19T06:18:55;5.90;;;1.60;;
12585;SDS011;6358;50.760;0.282;2023-09-19T06:21:24;6.20;;;1.95;;
12585;SDS011;6358;50.760;0.282;2023-09-19T06:23:50;5.03;;;1.80;;
12585;SDS011;6358;50.760;0.282;2023-09-19T06:26:17;3.53;;;1.50;;
12585;SDS011;6358;50.760;0.282;2023-09-19T06:28:43;3.85;;;1.48;;
12585;SDS011;6358;50.760;0.282;2023-09-19T06:31:09;4.43;;;1.77;;
12585;SDS011;6358;50.760;0.282;2023-09-19T06:33:36;4.53;;;1.70;;
12585;SDS011;6358;50.760;0.282;2023-09-19T06:36:04;4.40;;;1.50;;
12585;SDS011;6358;50.760;0.282;2023-09-19T06:38:30;4.97;;;2.17;;
12585;SDS011;6358;50.760;0.282;2023-09-19T06:40:59;4.95;;;1.70;;
12585;SDS011;6358;50.760;0.282;2023-09-19T06:43:26;4.43;;;2.08;;
12585;SDS011;6358;50.760;0.282;2023-09-19T06:45:53;3.53;;;1.73;;
12585;SDS011;6358;50.760;0.282;2023-09-19T06:48:20;3.15;;;1.75;;
12585;SDS011;6358;50.760;0.282;2023-09-19T06:50:46;3.35;;;1.23;;
12585;SDS011;6358;50.760;0.282;2023-09-19T06:53:15;4.38;;;1.60;;
12585;SDS011;6358;50.760;0.282;2023-09-19T06:55:41;4.23;;;1.87;;
12585;SDS011;6358;50.760;0.282;2023-09-19T06:58:08;4.80;;;1.88;;
12585;SDS011;6358;50.760;0.282;2023-09-19T07:00:35;6.45;;;2.10;;
12585;SDS011;6358;50.760;0.282;2023-09-19T07:05:31;5.63;;;1.80;;
12585;SDS011;6358;50.760;0.282;2023-09-19T07:07:57;4.80;;;1.98;;
12585;SDS011;6358;50.760;0.282;2023-09-19T07:10:24;3.47;;;1.80;;
12585;SDS011;6358;50.760;0.282;2023-09-19T07:12:58;4.53;;;1.70;;
12585;SDS011;6358;50.760;0.282;2023-09-19T07:15:25;4.63;;;1.70;;
12585;SDS011;6358;50.760;0.282;2023-09-19T07:17:54;3.85;;;1.67;;
12585;SDS011;6358;50.760;0.282;2023-09-19T07:20:21;3.17;;;1.63;;
12585;SDS011;6358;50.760;0.282;2023-09-19T07:22:51;4.95;;;1.95;;
12585;SDS011;6358;50.760;0.282;2023-09-19T07:25:17;3.00;;;1.60;;
12585;SDS011;6358;50.760;0.282;2023-09-19T07:27:43;4.28;;;1.90;;
12585;SDS011;6358;50.760;0.282;2023-09-19T07:30:10;3.05;;;1.80;;
12585;SDS011;6358;50.760;0.282;2023-09-19T07:32:37;2.83;;;1.67;;
12585;SDS011;6358;50.760;0.282;2023-09-19T07:35:03;3.08;;;1.83;;
12585;SDS011;6358;50.760;0.282;2023-09-19T07:37:33;3.20;;;1.90;;
12585;SDS011;6358;50.760;0.282;2023-09-19T07:40:00;2.58;;;1.60;;
12585;SDS011;6358;50.760;0.282;2023-09-19T07:42:26;4.38;;;1.88;;
12585;SDS011;6358;50.760;0.282;2023-09-19T07:44:52;4.13;;;2.00;;
12585;SDS011;6358;50.760;0.282;2023-09-19T07:47:19;3.97;;;1.52;;
12585;SDS011;6358;50.760;0.282;2023-09-19T07:49:49;5.38;;;2.33;;
12585;SDS011;6358;50.760;0.282;2023-09-19T07:52:15;3.63;;;2.00;;
12585;SDS011;6358;50.760;0.282;2023-09-19T07:54:41;4.63;;;2.03;;
12585;SDS011;6358;50.760;0.282;2023-09-19T07:57:09;4.50;;;1.98;;
12585;SDS011;6358;50.760;0.282;2023-09-19T07:59:36;3.70;;;1.90;;
12585;SDS011;6358;50.760;0.282;2023-09-19T08:02:03;4.18;;;1.90;;
12585;SDS011;6358;50.760;0.282;2023-09-19T08:04:29;3.22;;;1.77;;
12585;SDS011;6358;50.760;0.282;2023-09-19T08:06:58;5.13;;;1.98;;
12585;SDS011;6358;50.760;0.282;2023-09-19T08:09:25;3.97;;;1.90;;
12585;SDS011;6358;50.760;0.282;2023-09-19T08:11:52;5.22;;;1.75;;
12585;SDS011;6358;50.760;0.282;2023-09-19T08:14:19;4.07;;;1.83;;
12585;SDS011;6358;50.760;0.282;2023-09-19T08:16:45;4.28;;;2.13;;
12585;SDS011;6358;50.760;0.282;2023-09-19T08:19:11;4.55;;;1.90;;
12585;SDS011;6358;50.760;0.282;2023-09-19T08:21:37;4.47;;;2.13;;
12585;SDS011;6358;50.760;0.282;2023-09-19T08:24:03;4.70;;;1.88;;
12585;SDS011;6358;50.760;0.282;2023-09-19T08:26:30;4.13;;;1.73;;
12585;SDS011;6358;50.760;0.282;2023-09-19T08:28:57;5.10;;;2.05;;
12585;SDS011;6358;50.760;0.282;2023-09-19T08:31:24;5.53;;;2.00;;
12585;SDS011;6358;50.760;0.282;2023-09-19T08:33:50;3.53;;;2.00;;
12585;SDS011;6358;50.760;0.282;2023-09-19T08:36:18;4.28;;;1.80;;
12585;SDS011;6358;50.760;0.282;2023-09-19T08:38:44;3.88;;;1.80;;
12585;SDS011;6358;50.760;0.282;2023-09-19T08:41:11;4.70;;;2.00;;
12585;SDS011;6358;50.760;0.282;2023-09-19T08:43:37;4.22;;;1.88;;
12585;SDS011;6358;50.760;0.282;2023-09-19T08:46:10;4.63;;;2.20;;
12585;SDS011;6358;50.760;0.282;2023-09-19T08:48:39;4.45;;;2.00;;
12585;SDS011;6358;50.760;0.282;2023-09-19T08:51:10;3.33;;;1.80;;
12585;SDS011;6358;50.760;0.282;2023-09-19T08:56:11;4.72;;;1.98;;
12585;SDS011;6358;50.760;0.282;2023-09-19T08:58:45;3.63;;;1.80;;
12585;SDS011;6358;50.760;0.282;2023-09-19T09:01:13;3.50;;;1.90;;
12585;SDS011;6358;50.760;0.282;2023-09-19T09:03:40;5.40;;;2.00;;
12585;SDS011;6358;50.760;0.282;2023-09-19T09:06:13;4.10;;;2.00;;
12585;SDS011;6358;50.760;0.282;2023-09-19T09:08:40;5.55;;;2.03;;
12585;SDS011;6358;50.760;0.282;2023-09-19T09:11:07;4.35;;;1.85;;
12585;SDS011;6358;50.760;0.282;2023-09-19T09:13:34;4.32;;;1.90;;
12585;SDS011;6358;50.760;0.282;2023-09-19T09:16:02;4.22;;;2.38;;
12585;SDS011;6358;50.760;0.282;2023-09-19T09:18:28;4.35;;;2.17;;
12585;SDS011;6358;50.760;0.282;2023-09-19T09:20:55;2.83;;;1.60;;
12585;SDS011;6358;50.760;0.282;2023-09-19T09:23:21;5.22;;;2.08;;
12585;SDS011;6358;50.760;0.282;2023-09-19T09:25:48;3.95;;;2.00;;
12585;SDS011;6358;50.760;0.282;2023-09-19T09:28:27;3.78;;;1.95;;
12585;SDS011;6358;50.760;0.282;2023-09-19T09:30:55;4.40;;;2.10;;
12585;SDS011;6358;50.760;0.282;2023-09-19T09:33:23;4.20;;;2.13;;
12585;SDS011;6358;50.760;0.282;2023-09-19T09:38:21;5.13;;;2.22;;
12585;SDS011;6358;50.760;0.282;2023-09-19T09:40:53;3.60;;;2.10;;
12585;SDS011;6358;50.760;0.282;2023-09-19T09:43:36;3.47;;;2.10;;
12585;SDS011;6358;50.760;0.282;2023-09-19T09:46:14;5.07;;;2.50;;
12585;SDS011;6358;50.760;0.282;2023-09-19T09:48:56;4.68;;;2.08;;
12585;SDS011;6358;50.760;0.282;2023-09-19T09:51:50;5.20;;;2.30;;
12585;SDS011;6358;50.760;0.282;2023-09-19T09:54:23;4.00;;;2.30;;
12585;SDS011;6358;50.760;0.282;2023-09-19T09:57:00;4.03;;;2.13;;
12585;SDS011;6358;50.760;0.282;2023-09-19T09:59:45;5.30;;;2.22;;
12585;SDS011;6358;50.760;0.282;2023-09-19T10:02:26;4.97;;;2.38;;
12585;SDS011;6358;50.760;0.282;2023-09-19T10:05:10;4.55;;;2.28;;
12585;SDS011;6358;50.760;0.282;2023-09-19T10:07:52;5.00;;;2.30;;
12585;SDS011;6358;50.760;0.282;2023-09-19T10:10:32;4.45;;;2.20;;
12585;SDS011;6358;50.760;0.282;2023-09-19T10:13:09;6.63;;;2.83;;
12585;SDS011;6358;50.760;0.282;2023-09-19T10:15:50;5.15;;;2.22;;
12585;SDS011;6358;50.760;0.282;2023-09-19T10:18:19;3.08;;;2.00;;
12585;SDS011;6358;50.760;0.282;2023-09-19T10:20:45;4.93;;;2.50;;
12585;SDS011;6358;50.760;0.282;2023-09-19T10:23:12;5.65;;;2.40;;
12585;SDS011;6358;50.760;0.282;2023-09-19T10:25:42;5.97;;;2.65;;
12585;SDS011;6358;50.760;0.282;2023-09-19T10:28:11;5.82;;;2.30;;
12585;SDS011;6358;50.760;0.282;2023-09-19T10:30:40;5.70;;;2.70;;
12585;SDS011;6358;50.760;0.282;2023-09-19T10:33:09;5.97;;;2.30;;
12585;SDS011;6358;50.760;0.282;2023-09-19T10:35:37;6.90;;;2.67;;
12585;SDS011;6358;50.760;0.282;2023-09-19T10:38:05;5.28;;;2.30;;
12585;SDS011;6358;50.760;0.282;2023-09-19T10:40:34;5.75;;;2.40;;
12585;SDS011;6358;50.760;0.282;2023-09-19T10:43:04;5.28;;;2.30;;
12585;SDS011;6358;50.760;0.282;2023-09-19T10:45:31;4.00;;;2.37;;
12585;SDS011;6358;50.760;0.282;2023-09-19T10:47:58;6.03;;;2.50;;
12585;SDS011;6358;50.760;0.282;2023-09-19T10:50:25;4.83;;;2.60;;
12585;SDS011;6358;50.760;0.282;2023-09-19T10:52:53;5.00;;;2.50;;
12585;SDS011;6358;50.760;0.282;2023-09-19T10:55:24;5.20;;;2.30;;
12585;SDS011;6358;50.760;0.282;2023-09-19T10:57:53;4.97;;;2.58;;
12585;SDS011;6358;50.760;0.282;2023-09-19T11:00:55;4.45;;;2.47;;
12585;SDS011;6358;50.760;0.282;2023-09-19T11:03:22;4.68;;;2.70;;
12585;SDS011;6358;50.760;0.282;2023-09-19T11:06:02;6.60;;;2.70;;
12585;SDS011;6358;50.760;0.282;2023-09-19T11:09:04;5.80;;;2.53;;
12585;SDS011;6358;50.760;0.282;2023-09-19T11:11:42;4.38;;;2.55;;
12585;SDS011;6358;50.760;0.282;2023-09-19T11:17:02;5.07;;;2.92;;
12585;SDS011;6358;50.760;0.282;2023-09-19T11:20:10;6.78;;;2.72;;
12585;SDS011;6358;50.760;0.282;2023-09-19T11:22:13;4.78;;;2.72;;
12585;SDS011;6358;50.760;0.282;2023-09-19T11:24:39;4.63;;;2.60;;
12585;SDS011;6358;50.760;0.282;2023-09-19T11:27:10;7.05;;;2.85;;
12585;SDS011;6358;50.760;0.282;2023-09-19T11:29:42;8.40;;;3.55;;
12585;SDS011;6358;50.760;0.282;2023-09-19T11:32:08;4.65;;;2.53;;
12585;SDS011;6358;50.760;0.282;2023-09-19T11:39:38;6.07;;;2.83;;
12585;SDS011;6358;50.760;0.282;2023-09-19T11:42:40;6.80;;;2.85;;
12585;SDS011;6358;50.760;0.282;2023-09-19T11:45:07;6.22;;;3.03;;
12585;SDS011;6358;50.760;0.282;2023-09-19T11:47:33;7.70;;;3.10;;
12585;SDS011;6358;50.760;0.282;2023-09-19T11:50:01;7.90;;;3.40;;
12585;SDS011;6358;50.760;0.282;2023-09-19T11:52:27;7.25;;;3.03;;
12585;SDS011;6358;50.760;0.282;2023-09-19T11:55:00;5.75;;;2.90;;
12585;SDS011;6358;50.760;0.282;2023-09-19T11:57:27;6.77;;;3.23;;
12585;SDS011;6358;50.760;0.282;2023-09-19T11:59:55;5.90;;;3.03;;
12585;SDS011;6358;50.760;0.282;2023-09-19T12:02:38;7.10;;;3.00;;
12585;SDS011;6358;50.760;0.282;2023-09-19T12:05:06;7.47;;;2.97;;
12585;SDS011;6358;50.760;0.282;2023-09-19T12:07:32;7.60;;;3.38;;
12585;SDS011;6358;50.760;0.282;2023-09-19T12:10:07;6.60;;;3.33;;
12585;SDS011;6358;50.760;0.282;2023-09-19T12:12:36;6.10;;;3.00;;
12585;SDS011;6358;50.760;0.282;2023-09-19T12:15:02;5.82;;;3.38;;
12585;SDS011;6358;50.760;0.282;2023-09-19T12:17:35;6.85;;;3.03;;
12585;SDS011;6358;50.760;0.282;2023-09-19T12:20:02;7.55;;;3.63;;
12585;SDS011;6358;50.760;0.282;2023-09-19T12:22:45;6.27;;;3.13;;
12585;SDS011;6358;50.760;0.282;2023-09-19T12:25:15;6.53;;;3.35;;
12585;SDS011;6358;50.760;0.282;2023-09-19T12:27:43;6.78;;;3.22;;
12585;SDS011;6358;50.760;0.282;2023-09-19T12:30:12;9.70;;;3.77;;
12585;SDS011;6358;50.760;0.282;2023-09-19T12:32:39;7.07;;;3.50;;
12585;SDS011;6358;50.760;0.282;2023-09-19T12:35:08;7.70;;;3.53;;
12585;SDS011;6358;50.760;0.282;2023-09-19T12:37:43;6.63;;;3.20;;
12585;SDS011;6358;50.760;0.282;2023-09-19T12:40:17;7.00;;;3.47;;
12585;SDS011;6358;50.760;0.282;2023-09-19T12:42:47;8.40;;;3.77;;
12585;SDS011;6358;50.760;0.282;2023-09-19T12:45:13;8.77;;;3.77;;
12585;SDS011;6358;50.760;0.282;2023-09-19T12:48:17;8.52;;;3.53;;
12585;SDS011;6358;50.760;0.282;2023-09-19T12:50:27;7.10;;;3.28;;
12585;SDS011;6358;50.760;0.282;2023-09-19T12:52:54;8.85;;;3.70;;
12585;SDS011;6358;50.760;0.282;2023-09-19T12:55:28;6.32;;;3.42;;
12585;SDS011;6358;50.760;0.282;2023-09-19T13:00:31;9.30;;;3.80;;
12585;SDS011;6358;50.760;0.282;2023-09-19T13:03:15;6.55;;;3.22;;
12585;SDS011;6358;50.760;0.282;2023-09-19T13:06:02;7.15;;;3.67;;
12585;SDS011;6358;50.760;0.282;2023-09-19T13:08:37;6.85;;;3.63;;
12585;SDS011;6358;50.760;0.282;2023-09-19T13:13:32;6.82;;;3.17;;
12585;SDS011;6358;50.760;0.282;2023-09-19T13:15:59;7.60;;;3.50;;
12585;SDS011;6358;50.760;0.282;2023-09-19T13:18:26;8.43;;;3.53;;
12585;SDS011;6358;50.760;0.282;2023-09-19T13:21:05;7.78;;;3.33;;
12585;SDS011;6358;50.760;0.282;2023-09-19T13:23:37;8.98;;;4.00;;
12585;SDS011;6358;50.760;0.282;2023-09-19T13:26:03;8.67;;;3.90;;
12585;SDS011;6358;50.760;0.282;2023-09-19T13:28:31;9.95;;;4.00;;
12585;SDS011;6358;50.760;0.282;2023-09-19T13:30:57;6.85;;;3.35;;
12585;SDS011;6358;50.760;0.282;2023-09-19T13:33:23;7.60;;;3.58;;
12585;SDS011;6358;50.760;0.282;2023-09-19T13:35:51;6.47;;;3.20;;
12585;SDS011;6358;50.760;0.282;2023-09-19T13:38:18;7.20;;;3.45;;
12585;SDS011;6358;50.760;0.282;2023-09-19T13:40:47;6.13;;;3.28;;
12585;SDS011;6358;50.760;0.282;2023-09-19T13:43:13;10.07;;;3.35;;
12585;SDS011;6358;50.760;0.282;2023-09-19T13:45:40;6.32;;;3.38;;
12585;SDS011;6358;50.760;0.282;2023-09-19T13:48:09;7.13;;;3.65;;
12585;SDS011;6358;50.760;0.282;2023-09-19T13:50:38;8.25;;;3.70;;
12585;SDS011;6358;50.760;0.282;2023-09-19T13:53:07;7.63;;;3.55;;
12585;SDS011;6358;50.760;0.282;2023-09-19T13:55:34;8.15;;;3.55;;
12585;SDS011;6358;50.760;0.282;2023-09-19T13:58:00;7.67;;;3.90;;
12585;SDS011;6358;50.760;0.282;2023-09-19T14:00:27;5.97;;;3.30;;
12585;SDS011;6358;50.760;0.282;2023-09-19T14:02:53;6.50;;;3.40;;
12585;SDS011;6358;50.760;0.282;2023-09-19T14:05:19;7.85;;;3.70;;
12585;SDS011;6358;50.760;0.282;2023-09-19T14:07:46;7.30;;;3.55;;
12585;SDS011;6358;50.760;0.282;2023-09-19T14:10:12;5.87;;;3.40;;
12585;SDS011;6358;50.760;0.282;2023-09-19T14:12:38;7.93;;;3.22;;
12585;SDS011;6358;50.760;0.282;2023-09-19T14:15:08;6.32;;;3.58;;
12585;SDS011;6358;50.760;0.282;2023-09-19T14:17:35;7.55;;;3.47;;
12585;SDS011;6358;50.760;0.282;2023-09-19T14:20:01;8.80;;;3.33;;
12585;SDS011;6358;50.760;0.282;2023-09-19T14:22:27;6.38;;;3.30;;
12585;SDS011;6358;50.760;0.282;2023-09-19T14:24:53;8.13;;;3.72;;
12585;SDS011;6358;50.760;0.282;2023-09-19T14:27:20;6.93;;;3.80;;
12585;SDS011;6358;50.760;0.282;2023-09-19T14:29:46;7.15;;;3.38;;
12585;SDS011;6358;50.760;0.282;2023-09-19T14:32:12;7.80;;;3.75;;
12585;SDS011;6358;50.760;0.282;2023-09-19T14:34:38;8.03;;;3.63;;
12585;SDS011;6358;50.760;0.282;2023-09-19T14:37:07;8.05;;;3.60;;
12585;SDS011;6358;50.760;0.282;2023-09-19T14:39:33;7.55;;;3.65;;
12585;SDS011;6358;50.760;0.282;2023-09-19T14:41:59;6.57;;;3.30;;
12585;SDS011;6358;50.760;0.282;2023-09-19T14:44:25;7.15;;;3.58;;
12585;SDS011;6358;50.760;0.282;2023-09-19T14:46:53;8.05;;;3.53;;
12585;SDS011;6358;50.760;0.282;2023-09-19T14:49:20;6.97;;;3.07;;
12585;SDS011;6358;50.760;0.282;2023-09-19T14:51:46;5.65;;;3.30;;
12585;SDS011;6358;50.760;0.282;2023-09-19T14:54:14;5.95;;;3.42;;
12585;SDS011;6358;50.760;0.282;2023-09-19T14:56:44;7.50;;;3.60;;
12585;SDS011;6358;50.760;0.282;2023-09-19T14:59:10;6.47;;;3.20;;
12585;SDS011;6358;50.760;0.282;2023-09-19T15:01:36;7.95;;;3.25;;
12585;SDS011;6358;50.760;0.282;2023-09-19T15:04:03;5.47;;;3.17;;
12585;SDS011;6358;50.760;0.282;2023-09-19T15:06:30;5.85;;;3.40;;
12585;SDS011;6358;50.760;0.282;2023-09-19T15:08:56;6.97;;;3.50;;
12585;SDS011;6358;50.760;0.282;2023-09-19T15:11:22;6.57;;;3.65;;
12585;SDS011;6358;50.760;0.282;2023-09-19T15:13:50;7.37;;;3.60;;
12585;SDS011;6358;50.760;0.282;2023-09-19T15:16:17;7.68;;;3.42;;
12585;SDS011;6358;50.760;0.282;2023-09-19T15:18:45;7.63;;;3.20;;
12585;SDS011;6358;50.760;0.282;2023-09-19T15:21:14;6.25;;;3.25;;
12585;SDS011;6358;50.760;0.282;2023-09-19T15:23:41;5.75;;;3.08;;
12585;SDS011;6358;50.760;0.282;2023-09-19T15:26:11;7.57;;;3.47;;
12585;SDS011;6358;50.760;0.282;2023-09-19T15:28:37;9.03;;;3.47;;
12585;SDS011;6358;50.760;0.282;2023-09-19T15:31:05;5.85;;;3.20;;
12585;SDS011;6358;50.760;0.282;2023-09-19T15:33:31;8.07;;;3.60;;
12585;SDS011;6358;50.760;0.282;2023-09-19T15:38:27;9.53;;;3.50;;
12585;SDS011;6358;50.760;0.282;2023-09-19T15:40:54;8.47;;;3.50;;
12585;SDS011;6358;50.760;0.282;2023-09-19T15:43:20;6.07;;;3.40;;
12585;SDS011;6358;50.760;0.282;2023-09-19T15:45:47;9.63;;;3.60;;
12585;SDS011;6358;50.760;0.282;2023-09-19T15:48:16;7.23;;;3.70;;
12585;SDS011;6358;50.760;0.282;2023-09-19T15:50:46;7.45;;;3.40;;
12585;SDS011;6358;50.760;0.282;2023-09-19T15:53:12;8.57;;;4.03;;